sensor_id;sensor_type;location;lat;lon;timestamp;temperature;humidity
27226;DHT22;14732;51.074;3.788;2022-12-07T00:00:55;6.90;99.90
27226;DHT22;14732;51.074;3.788;2022-12-07T00:03:20;6.90;99.90
27226;DHT22;14732;51.074;3.788;2022-12-07T00:05:46;6.90;99.90
27226;DHT22;14732;51.074;3.788;2022-12-07T00:08:12;6.90;99.90
27226;DHT22;14732;51.074;3.788;2022-12-07T00:10:37;6.80;99.90
27226;DHT22;14732;51.074;3.788;2022-12-07T00:13:03;6.80;99.90
27226;DHT22;14732;51.074;3.788;2022-12-07T00:15:28;6.80;99.90
27226;DHT22;14732;51.074;3.788;2022-12-07T00:17:54;6.70;99.90
27226;DHT22;14732;51.074;3.788;2022-12-07T00:20:20;6.60;99.90
27226;DHT22;14732;51.074;3.788;2022-12-07T00:22:45;6.60;99.90
27226;DHT22;14732;51.074;3.788;2022-12-07T00:25:11;6.60;99.90
27226;DHT22;14732;51.074;3.788;2022-12-07T00:27:37;6.60;99.90
27226;DHT22;14732;51.074;3.788;2022-12-07T00:30:02;6.50;99.90
27226;DHT22;14732;51.074;3.788;2022-12-07T00:32:28;6.50;99.90
27226;DHT22;14732;51.074;3.788;2022-12-07T00:34:54;6.60;99.90
27226;DHT22;14732;51.074;3.788;2022-12-07T00:37:19;6.60;99.90
27226;DHT22;14732;51.074;3.788;2022-12-07T00:39:45;6.60;99.90
27226;DHT22;14732;51.074;3.788;2022-12-07T00:42:11;6.70;99.90
27226;DHT22;14732;51.074;3.788;2022-12-07T00:44:37;6.80;99.90
27226;DHT22;14732;51.074;3.788;2022-12-07T00:47:03;6.80;99.90
27226;DHT22;14732;51.074;3.788;2022-12-07T00:49:28;6.70;99.90
27226;DHT22;14732;51.074;3.788;2022-12-07T00:51:54;6.60;99.90
27226;DHT22;14732;51.074;3.788;2022-12-07T00:54:19;6.60;99.90
27226;DHT22;14732;51.074;3.788;2022-12-07T00:56:45;6.70;99.90
27226;DHT22;14732;51.074;3.788;2022-12-07T00:59:13;6.70;99.90
27226;DHT22;14732;51.074;3.788;2022-12-07T01:01:42;6.80;99.90
27226;DHT22;14732;51.074;3.788;2022-12-07T01:04:08;6.80;99.90
27226;DHT22;14732;51.074;3.788;2022-12-07T01:06:34;6.80;99.90
27226;DHT22;14732;51.074;3.788;2022-12-07T01:09:00;6.70;99.90
27226;DHT22;14732;51.074;3.788;2022-12-07T01:11:28;6.70;99.90
27226;DHT22;14732;51.074;3.788;2022-12-07T01:13:55;6.60;99.90
27226;DHT22;14732;51.074;3.788;2022-12-07T01:16:23;6.50;99.90
27226;DHT22;14732;51.074;3.788;2022-12-07T01:18:50;6.40;99.90
27226;DHT22;14732;51.074;3.788;2022-12-07T01:21:22;6.40;99.90
27226;DHT22;14732;51.074;3.788;2022-12-07T01:23:48;6.40;99.90
27226;DHT22;14732;51.074;3.788;2022-12-07T01:26:17;6.40;99.90
27226;DHT22;14732;51.074;3.788;2022-12-07T01:28:44;6.30;99.90
27226;DHT22;14732;51.074;3.788;2022-12-07T01:31:12;6.30;99.90
27226;DHT22;14732;51.074;3.788;2022-12-07T01:33:41;6.20;99.90
27226;DHT22;14732;51.074;3.788;2022-12-07T01:36:18;6.20;99.90
27226;DHT22;14732;51.074;3.788;2022-12-07T01:38:45;6.20;99.90
27226;DHT22;14732;51.074;3.788;2022-12-07T01:41:11;6.30;99.90
27226;DHT22;14732;51.074;3.788;2022-12-07T01:44:11;6.40;99.90
27226;DHT22;14732;51.074;3.788;2022-12-07T01:46:38;6.40;99.90
27226;DHT22;14732;51.074;3.788;2022-12-07T01:49:07;6.50;99.90
27226;DHT22;14732;51.074;3.788;2022-12-07T01:51:35;6.50;99.90
27226;DHT22;14732;51.074;3.788;2022-12-07T01:54:03;6.40;99.90
27226;DHT22;14732;51.074;3.788;2022-12-07T01:56:29;6.50;99.90
27226;DHT22;14732;51.074;3.788;2022-12-07T01:58:57;6.40;99.90
27226;DHT22;14732;51.074;3.788;2022-12-07T02:01:24;6.40;99.90
27226;DHT22;14732;51.074;3.788;2022-12-07T02:03:50;6.40;99.90
27226;DHT22;14732;51.074;3.788;2022-12-07T02:06:19;6.40;99.90
27226;DHT22;14732;51.074;3.788;2022-12-07T02:08:46;6.40;99.90
27226;DHT22;14732;51.074;3.788;2022-12-07T02:11:12;6.40;99.90
27226;DHT22;14732;51.074;3.788;2022-12-07T02:13:40;6.50;99.90
27226;DHT22;14732;51.074;3.788;2022-12-07T02:26:48;6.40;99.90
27226;DHT22;14732;51.074;3.788;2022-12-07T02:29:28;6.40;99.90
27226;DHT22;14732;51.074;3.788;2022-12-07T02:34:33;6.30;99.90
27226;DHT22;14732;51.074;3.788;2022-12-07T02:37:09;6.20;99.90
27226;DHT22;14732;51.074;3.788;2022-12-07T02:39:52;6.30;99.90
27226;DHT22;14732;51.074;3.788;2022-12-07T02:42:28;6.30;99.90
27226;DHT22;14732;51.074;3.788;2022-12-07T02:44:57;6.40;99.90
27226;DHT22;14732;51.074;3.788;2022-12-07T02:47:25;6.50;99.90
27226;DHT22;14732;51.074;3.788;2022-12-07T02:49:51;6.50;99.90
27226;DHT22;14732;51.074;3.788;2022-12-07T02:52:17;6.60;99.90
27226;DHT22;14732;51.074;3.788;2022-12-07T02:54:43;6.60;99.90
27226;DHT22;14732;51.074;3.788;2022-12-07T03:02:49;6.60;99.90
27226;DHT22;14732;51.074;3.788;2022-12-07T03:08:25;6.60;99.90
27226;DHT22;14732;51.074;3.788;2022-12-07T03:16:21;6.70;99.90
27226;DHT22;14732;51.074;3.788;2022-12-07T03:18:58;6.60;99.90
27226;DHT22;14732;51.074;3.788;2022-12-07T03:21:46;6.50;99.90
27226;DHT22;14732;51.074;3.788;2022-12-07T03:24:19;6.50;99.90
27226;DHT22;14732;51.074;3.788;2022-12-07T03:26:50;6.40;99.90
27226;DHT22;14732;51.074;3.788;2022-12-07T03:29:39;6.40;99.90
27226;DHT22;14732;51.074;3.788;2022-12-07T03:34:47;6.20;99.90
27226;DHT22;14732;51.074;3.788;2022-12-07T03:37:29;6.10;99.90
27226;DHT22;14732;51.074;3.788;2022-12-07T03:40:05;6.10;99.90
27226;DHT22;14732;51.074;3.788;2022-12-07T03:42:32;6.10;99.90
27226;DHT22;14732;51.074;3.788;2022-12-07T03:44:59;6.00;99.90
27226;DHT22;14732;51.074;3.788;2022-12-07T03:53:33;5.80;99.90
27226;DHT22;14732;51.074;3.788;2022-12-07T03:56:01;5.80;99.90
27226;DHT22;14732;51.074;3.788;2022-12-07T03:58:28;5.80;99.90
27226;DHT22;14732;51.074;3.788;2022-12-07T04:00:55;5.80;99.90
27226;DHT22;14732;51.074;3.788;2022-12-07T04:03:20;5.70;99.90
27226;DHT22;14732;51.074;3.788;2022-12-07T04:05:46;5.60;99.90
27226;DHT22;14732;51.074;3.788;2022-12-07T04:08:12;5.60;99.90
27226;DHT22;14732;51.074;3.788;2022-12-07T04:10:38;5.50;99.90
27226;DHT22;14732;51.074;3.788;2022-12-07T04:13:04;5.40;99.90
27226;DHT22;14732;51.074;3.788;2022-12-07T04:15:30;5.40;99.90
27226;DHT22;14732;51.074;3.788;2022-12-07T04:17:55;5.40;99.90
27226;DHT22;14732;51.074;3.788;2022-12-07T04:20:21;5.40;99.90
27226;DHT22;14732;51.074;3.788;2022-12-07T04:22:47;5.30;99.90
27226;DHT22;14732;51.074;3.788;2022-12-07T04:25:12;5.30;99.90
27226;DHT22;14732;51.074;3.788;2022-12-07T04:27:38;5.30;99.90
27226;DHT22;14732;51.074;3.788;2022-12-07T04:30:04;5.20;99.90
27226;DHT22;14732;51.074;3.788;2022-12-07T04:32:30;5.20;99.90
27226;DHT22;14732;51.074;3.788;2022-12-07T04:34:56;5.10;99.90
27226;DHT22;14732;51.074;3.788;2022-12-07T04:37:22;5.10;99.90
27226;DHT22;14732;51.074;3.788;2022-12-07T04:39:48;5.10;99.90
27226;DHT22;14732;51.074;3.788;2022-12-07T04:42:14;5.20;99.90
27226;DHT22;14732;51.074;3.788;2022-12-07T04:44:39;5.30;99.90
27226;DHT22;14732;51.074;3.788;2022-12-07T04:47:05;5.20;99.90
27226;DHT22;14732;51.074;3.788;2022-12-07T04:49:30;5.30;99.90
27226;DHT22;14732;51.074;3.788;2022-12-07T04:51:56;5.20;99.90
27226;DHT22;14732;51.074;3.788;2022-12-07T04:54:22;5.20;99.90
27226;DHT22;14732;51.074;3.788;2022-12-07T04:56:48;5.20;99.90
27226;DHT22;14732;51.074;3.788;2022-12-07T04:59:15;5.20;99.90
27226;DHT22;14732;51.074;3.788;2022-12-07T05:01:41;5.20;99.90
27226;DHT22;14732;51.074;3.788;2022-12-07T05:04:08;5.40;99.90
27226;DHT22;14732;51.074;3.788;2022-12-07T05:06:34;5.60;99.90
27226;DHT22;14732;51.074;3.788;2022-12-07T05:09:00;5.70;99.90
27226;DHT22;14732;51.074;3.788;2022-12-07T05:11:25;6.00;99.90
27226;DHT22;14732;51.074;3.788;2022-12-07T05:16:37;6.10;99.90
27226;DHT22;14732;51.074;3.788;2022-12-07T05:19:03;6.00;99.90
27226;DHT22;14732;51.074;3.788;2022-12-07T05:21:29;5.80;99.90
27226;DHT22;14732;51.074;3.788;2022-12-07T05:23:54;5.70;99.90
27226;DHT22;14732;51.074;3.788;2022-12-07T05:26:20;5.50;99.90
27226;DHT22;14732;51.074;3.788;2022-12-07T05:28:50;5.70;99.90
27226;DHT22;14732;51.074;3.788;2022-12-07T05:31:16;5.90;99.90
27226;DHT22;14732;51.074;3.788;2022-12-07T05:33:41;6.00;99.90
27226;DHT22;14732;51.074;3.788;2022-12-07T05:36:07;6.10;99.90
27226;DHT22;14732;51.074;3.788;2022-12-07T05:38:33;6.00;99.90
27226;DHT22;14732;51.074;3.788;2022-12-07T05:41:03;5.90;99.90
27226;DHT22;14732;51.074;3.788;2022-12-07T05:43:29;5.80;99.90
27226;DHT22;14732;51.074;3.788;2022-12-07T05:45:55;5.80;99.90
27226;DHT22;14732;51.074;3.788;2022-12-07T05:48:20;5.80;99.90
27226;DHT22;14732;51.074;3.788;2022-12-07T05:50:50;5.90;99.90
27226;DHT22;14732;51.074;3.788;2022-12-07T05:53:16;5.90;99.90
27226;DHT22;14732;51.074;3.788;2022-12-07T05:55:42;5.90;99.90
27226;DHT22;14732;51.074;3.788;2022-12-07T05:58:08;5.80;99.90
27226;DHT22;14732;51.074;3.788;2022-12-07T06:00:57;5.70;99.90
27226;DHT22;14732;51.074;3.788;2022-12-07T06:03:22;5.80;99.90
27226;DHT22;14732;51.074;3.788;2022-12-07T06:05:48;5.90;99.90
27226;DHT22;14732;51.074;3.788;2022-12-07T06:08:14;5.90;99.90
27226;DHT22;14732;51.074;3.788;2022-12-07T06:10:41;6.00;99.90
27226;DHT22;14732;51.074;3.788;2022-12-07T06:13:08;6.10;99.90
27226;DHT22;14732;51.074;3.788;2022-12-07T06:15:36;6.10;99.90
27226;DHT22;14732;51.074;3.788;2022-12-07T06:18:01;6.10;99.90
27226;DHT22;14732;51.074;3.788;2022-12-07T06:20:27;5.90;99.90
27226;DHT22;14732;51.074;3.788;2022-12-07T06:22:53;5.80;99.90
27226;DHT22;14732;51.074;3.788;2022-12-07T06:25:18;5.80;99.90
27226;DHT22;14732;51.074;3.788;2022-12-07T06:27:44;6.00;99.90
27226;DHT22;14732;51.074;3.788;2022-12-07T06:30:10;6.10;99.90
27226;DHT22;14732;51.074;3.788;2022-12-07T06:32:36;6.00;99.90
27226;DHT22;14732;51.074;3.788;2022-12-07T06:35:03;6.10;99.90
27226;DHT22;14732;51.074;3.788;2022-12-07T06:37:29;6.10;99.90
27226;DHT22;14732;51.074;3.788;2022-12-07T06:39:55;6.00;99.90
27226;DHT22;14732;51.074;3.788;2022-12-07T06:42:21;5.90;99.90
27226;DHT22;14732;51.074;3.788;2022-12-07T06:44:47;6.00;99.90
27226;DHT22;14732;51.074;3.788;2022-12-07T06:47:13;6.00;99.90
27226;DHT22;14732;51.074;3.788;2022-12-07T06:49:38;6.00;99.90
27226;DHT22;14732;51.074;3.788;2022-12-07T06:52:04;5.90;99.90
27226;DHT22;14732;51.074;3.788;2022-12-07T06:54:31;5.90;99.90
27226;DHT22;14732;51.074;3.788;2022-12-07T06:56:57;5.80;99.90
27226;DHT22;14732;51.074;3.788;2022-12-07T06:59:22;5.80;99.90
27226;DHT22;14732;51.074;3.788;2022-12-07T07:01:48;6.00;99.90
27226;DHT22;14732;51.074;3.788;2022-12-07T07:04:13;6.00;99.90
27226;DHT22;14732;51.074;3.788;2022-12-07T07:06:39;6.10;99.90
27226;DHT22;14732;51.074;3.788;2022-12-07T07:09:05;6.10;99.90
27226;DHT22;14732;51.074;3.788;2022-12-07T07:11:31;6.10;99.90
27226;DHT22;14732;51.074;3.788;2022-12-07T07:13:56;6.10;99.90
27226;DHT22;14732;51.074;3.788;2022-12-07T07:16:24;6.10;99.90
27226;DHT22;14732;51.074;3.788;2022-12-07T07:18:50;6.10;99.90
27226;DHT22;14732;51.074;3.788;2022-12-07T07:21:15;6.10;99.90
27226;DHT22;14732;51.074;3.788;2022-12-07T07:23:41;6.00;99.90
27226;DHT22;14732;51.074;3.788;2022-12-07T07:26:07;6.00;99.90
27226;DHT22;14732;51.074;3.788;2022-12-07T07:28:32;6.00;99.90
27226;DHT22;14732;51.074;3.788;2022-12-07T07:30:58;6.10;99.90
27226;DHT22;14732;51.074;3.788;2022-12-07T07:33:24;6.00;99.90
27226;DHT22;14732;51.074;3.788;2022-12-07T07:35:49;6.00;99.90
27226;DHT22;14732;51.074;3.788;2022-12-07T07:38:15;6.00;99.90
27226;DHT22;14732;51.074;3.788;2022-12-07T07:40:40;6.20;99.90
27226;DHT22;14732;51.074;3.788;2022-12-07T07:43:06;6.50;99.90
27226;DHT22;14732;51.074;3.788;2022-12-07T07:45:32;6.60;99.90
27226;DHT22;14732;51.074;3.788;2022-12-07T07:47:57;6.50;99.90
27226;DHT22;14732;51.074;3.788;2022-12-07T07:50:23;6.40;99.90
27226;DHT22;14732;51.074;3.788;2022-12-07T07:52:49;6.40;99.90
27226;DHT22;14732;51.074;3.788;2022-12-07T07:55:15;6.50;99.90
27226;DHT22;14732;51.074;3.788;2022-12-07T07:57:40;6.50;99.90
27226;DHT22;14732;51.074;3.788;2022-12-07T08:00:13;6.60;99.90
27226;DHT22;14732;51.074;3.788;2022-12-07T08:02:40;6.50;99.90
27226;DHT22;14732;51.074;3.788;2022-12-07T08:05:06;6.40;99.90
27226;DHT22;14732;51.074;3.788;2022-12-07T08:07:32;6.20;99.90
27226;DHT22;14732;51.074;3.788;2022-12-07T08:09:57;6.10;99.90
27226;DHT22;14732;51.074;3.788;2022-12-07T08:12:23;6.00;99.90
27226;DHT22;14732;51.074;3.788;2022-12-07T08:14:49;6.00;99.90
27226;DHT22;14732;51.074;3.788;2022-12-07T08:17:14;5.90;99.90
27226;DHT22;14732;51.074;3.788;2022-12-07T08:19:40;6.00;99.90
27226;DHT22;14732;51.074;3.788;2022-12-07T08:22:06;5.90;99.90
27226;DHT22;14732;51.074;3.788;2022-12-07T08:24:35;6.00;99.90
27226;DHT22;14732;51.074;3.788;2022-12-07T08:27:01;6.10;99.90
27226;DHT22;14732;51.074;3.788;2022-12-07T08:29:26;6.30;99.90
27226;DHT22;14732;51.074;3.788;2022-12-07T08:31:52;6.40;99.90
27226;DHT22;14732;51.074;3.788;2022-12-07T08:34:18;6.50;99.90
27226;DHT22;14732;51.074;3.788;2022-12-07T08:36:44;6.60;99.90
27226;DHT22;14732;51.074;3.788;2022-12-07T08:39:09;6.50;99.90
27226;DHT22;14732;51.074;3.788;2022-12-07T08:41:35;6.50;99.90
27226;DHT22;14732;51.074;3.788;2022-12-07T08:44:01;6.50;99.90
27226;DHT22;14732;51.074;3.788;2022-12-07T08:46:32;6.60;99.90
27226;DHT22;14732;51.074;3.788;2022-12-07T08:49:15;6.60;99.90
27226;DHT22;14732;51.074;3.788;2022-12-07T08:51:42;6.70;99.90
27226;DHT22;14732;51.074;3.788;2022-12-07T08:54:11;6.70;99.90
27226;DHT22;14732;51.074;3.788;2022-12-07T08:56:38;6.90;99.90
27226;DHT22;14732;51.074;3.788;2022-12-07T08:59:05;7.00;99.90
27226;DHT22;14732;51.074;3.788;2022-12-07T09:01:31;7.10;99.90
27226;DHT22;14732;51.074;3.788;2022-12-07T09:03:58;7.20;99.90
27226;DHT22;14732;51.074;3.788;2022-12-07T09:06:24;7.30;99.90
27226;DHT22;14732;51.074;3.788;2022-12-07T09:08:52;7.50;99.90
27226;DHT22;14732;51.074;3.788;2022-12-07T09:11:19;7.60;99.90
27226;DHT22;14732;51.074;3.788;2022-12-07T09:13:45;7.70;99.90
27226;DHT22;14732;51.074;3.788;2022-12-07T09:16:10;7.90;99.90
27226;DHT22;14732;51.074;3.788;2022-12-07T09:18:36;8.20;99.90
27226;DHT22;14732;51.074;3.788;2022-12-07T09:21:03;8.30;99.90
27226;DHT22;14732;51.074;3.788;2022-12-07T09:23:29;8.50;99.90
27226;DHT22;14732;51.074;3.788;2022-12-07T09:25:54;8.60;99.90
27226;DHT22;14732;51.074;3.788;2022-12-07T09:28:20;8.60;99.90
27226;DHT22;14732;51.074;3.788;2022-12-07T09:30:49;8.50;99.90
27226;DHT22;14732;51.074;3.788;2022-12-07T09:33:15;8.10;99.90
27226;DHT22;14732;51.074;3.788;2022-12-07T09:35:48;7.80;99.90
27226;DHT22;14732;51.074;3.788;2022-12-07T09:38:15;7.60;99.90
27226;DHT22;14732;51.074;3.788;2022-12-07T09:40:41;7.40;99.90
27226;DHT22;14732;51.074;3.788;2022-12-07T09:43:17;7.50;99.90
27226;DHT22;14732;51.074;3.788;2022-12-07T09:45:44;7.50;99.90
27226;DHT22;14732;51.074;3.788;2022-12-07T09:48:18;7.40;99.90
27226;DHT22;14732;51.074;3.788;2022-12-07T09:50:46;7.40;99.90
27226;DHT22;14732;51.074;3.788;2022-12-07T09:53:20;7.60;99.90
27226;DHT22;14732;51.074;3.788;2022-12-07T09:55:48;7.80;99.90
27226;DHT22;14732;51.074;3.788;2022-12-07T09:58:25;7.90;99.90
27226;DHT22;14732;51.074;3.788;2022-12-07T10:01:14;7.90;99.90
27226;DHT22;14732;51.074;3.788;2022-12-07T10:03:45;7.90;99.90
27226;DHT22;14732;51.074;3.788;2022-12-07T10:06:12;7.90;99.90
27226;DHT22;14732;51.074;3.788;2022-12-07T10:08:39;7.90;99.90
27226;DHT22;14732;51.074;3.788;2022-12-07T10:11:06;7.80;99.90
27226;DHT22;14732;51.074;3.788;2022-12-07T10:13:46;7.80;99.90
27226;DHT22;14732;51.074;3.788;2022-12-07T10:16:39;8.00;99.90
27226;DHT22;14732;51.074;3.788;2022-12-07T10:19:25;8.10;99.90
27226;DHT22;14732;51.074;3.788;2022-12-07T10:24:26;8.20;99.90
27226;DHT22;14732;51.074;3.788;2022-12-07T10:26:52;8.10;99.90
27226;DHT22;14732;51.074;3.788;2022-12-07T10:31:57;7.90;99.90
27226;DHT22;14732;51.074;3.788;2022-12-07T10:34:35;7.80;99.90
27226;DHT22;14732;51.074;3.788;2022-12-07T10:37:15;7.70;99.90
27226;DHT22;14732;51.074;3.788;2022-12-07T10:39:48;7.70;99.90
27226;DHT22;14732;51.074;3.788;2022-12-07T10:44:44;8.00;99.90
27226;DHT22;14732;51.074;3.788;2022-12-07T11:06:52;7.80;99.90
27226;DHT22;14732;51.074;3.788;2022-12-07T11:14:44;7.80;99.90
27226;DHT22;14732;51.074;3.788;2022-12-07T11:17:35;8.00;99.90
27226;DHT22;14732;51.074;3.788;2022-12-07T11:20:11;8.20;99.90
27226;DHT22;14732;51.074;3.788;2022-12-07T11:22:51;8.40;99.90
27226;DHT22;14732;51.074;3.788;2022-12-07T11:26:07;8.30;99.90
27226;DHT22;14732;51.074;3.788;2022-12-07T11:28:45;8.30;99.90
27226;DHT22;14732;51.074;3.788;2022-12-07T11:36:50;8.20;99.90
27226;DHT22;14732;51.074;3.788;2022-12-07T11:39:36;8.30;99.90
27226;DHT22;14732;51.074;3.788;2022-12-07T11:42:08;8.40;99.90
27226;DHT22;14732;51.074;3.788;2022-12-07T11:47:34;8.40;99.90
27226;DHT22;14732;51.074;3.788;2022-12-07T11:52:45;7.90;99.90
27226;DHT22;14732;51.074;3.788;2022-12-07T11:55:27;8.00;99.90
27226;DHT22;14732;51.074;3.788;2022-12-07T12:00:45;8.60;99.90
27226;DHT22;14732;51.074;3.788;2022-12-07T12:03:21;8.60;99.90
27226;DHT22;14732;51.074;3.788;2022-12-07T12:05:49;8.30;99.90
27226;DHT22;14732;51.074;3.788;2022-12-07T12:08:20;8.40;99.90
27226;DHT22;14732;51.074;3.788;2022-12-07T12:20:31;8.40;99.90
27226;DHT22;14732;51.074;3.788;2022-12-07T12:22:39;8.30;99.90
27226;DHT22;14732;51.074;3.788;2022-12-07T12:25:13;8.40;99.90
27226;DHT22;14732;51.074;3.788;2022-12-07T12:27:46;8.40;99.90
27226;DHT22;14732;51.074;3.788;2022-12-07T12:30:36;8.50;99.90
27226;DHT22;14732;51.074;3.788;2022-12-07T12:33:27;8.50;99.90
27226;DHT22;14732;51.074;3.788;2022-12-07T12:50:11;9.00;99.90
27226;DHT22;14732;51.074;3.788;2022-12-07T12:57:36;8.80;99.90
27226;DHT22;14732;51.074;3.788;2022-12-07T13:00:22;8.80;99.90
27226;DHT22;14732;51.074;3.788;2022-12-07T13:02:54;8.80;99.90
27226;DHT22;14732;51.074;3.788;2022-12-07T13:05:23;8.90;99.90
27226;DHT22;14732;51.074;3.788;2022-12-07T13:07:54;9.20;99.90
27226;DHT22;14732;51.074;3.788;2022-12-07T13:15:51;9.50;99.90
27226;DHT22;14732;51.074;3.788;2022-12-07T13:29:17;9.40;99.90
27226;DHT22;14732;51.074;3.788;2022-12-07T13:31:52;9.30;99.90
27226;DHT22;14732;51.074;3.788;2022-12-07T13:37:10;9.30;99.90
27226;DHT22;14732;51.074;3.788;2022-12-07T13:39:53;9.40;99.90
27226;DHT22;14732;51.074;3.788;2022-12-07T13:42:26;9.30;99.90
27226;DHT22;14732;51.074;3.788;2022-12-07T13:44:52;9.20;99.90
27226;DHT22;14732;51.074;3.788;2022-12-07T13:47:32;9.20;99.90
27226;DHT22;14732;51.074;3.788;2022-12-07T13:50:00;9.30;99.90
27226;DHT22;14732;51.074;3.788;2022-12-07T13:52:27;9.40;99.90
27226;DHT22;14732;51.074;3.788;2022-12-07T13:57:27;9.30;99.90
27226;DHT22;14732;51.074;3.788;2022-12-07T13:59:53;9.30;99.90
27226;DHT22;14732;51.074;3.788;2022-12-07T14:04:45;9.30;99.90
27226;DHT22;14732;51.074;3.788;2022-12-07T14:10:00;9.30;99.90
27226;DHT22;14732;51.074;3.788;2022-12-07T14:12:28;9.30;99.90
27226;DHT22;14732;51.074;3.788;2022-12-07T14:14:55;9.30;99.90
27226;DHT22;14732;51.074;3.788;2022-12-07T14:17:24;9.10;99.90
27226;DHT22;14732;51.074;3.788;2022-12-07T14:19:58;9.10;99.90
27226;DHT22;14732;51.074;3.788;2022-12-07T14:22:26;9.00;99.90
27226;DHT22;14732;51.074;3.788;2022-12-07T14:25:19;9.00;99.90
27226;DHT22;14732;51.074;3.788;2022-12-07T14:27:51;8.90;99.90
27226;DHT22;14732;51.074;3.788;2022-12-07T14:30:19;8.90;99.90
27226;DHT22;14732;51.074;3.788;2022-12-07T14:32:46;8.90;99.90
27226;DHT22;14732;51.074;3.788;2022-12-07T14:35:16;8.70;99.90
27226;DHT22;14732;51.074;3.788;2022-12-07T14:37:44;8.80;99.90
27226;DHT22;14732;51.074;3.788;2022-12-07T14:40:20;8.80;99.90
27226;DHT22;14732;51.074;3.788;2022-12-07T14:42:48;8.80;99.90
27226;DHT22;14732;51.074;3.788;2022-12-07T14:45:20;8.80;99.90
27226;DHT22;14732;51.074;3.788;2022-12-07T14:47:46;8.80;99.90
27226;DHT22;14732;51.074;3.788;2022-12-07T14:50:15;8.90;99.90
27226;DHT22;14732;51.074;3.788;2022-12-07T14:52:42;8.90;99.90
27226;DHT22;14732;51.074;3.788;2022-12-07T14:55:26;8.80;99.90
27226;DHT22;14732;51.074;3.788;2022-12-07T14:57:53;8.50;99.90
27226;DHT22;14732;51.074;3.788;2022-12-07T15:00:20;8.50;99.90
27226;DHT22;14732;51.074;3.788;2022-12-07T15:02:47;8.60;99.90
27226;DHT22;14732;51.074;3.788;2022-12-07T15:05:13;8.60;99.90
27226;DHT22;14732;51.074;3.788;2022-12-07T15:07:39;8.70;99.90
27226;DHT22;14732;51.074;3.788;2022-12-07T15:10:08;8.50;99.90
27226;DHT22;14732;51.074;3.788;2022-12-07T15:12:38;8.50;99.90
27226;DHT22;14732;51.074;3.788;2022-12-07T15:15:04;8.50;99.90
27226;DHT22;14732;51.074;3.788;2022-12-07T15:17:30;8.50;99.90
27226;DHT22;14732;51.074;3.788;2022-12-07T15:19:55;8.30;99.90
27226;DHT22;14732;51.074;3.788;2022-12-07T15:22:21;8.40;99.90
27226;DHT22;14732;51.074;3.788;2022-12-07T15:24:46;8.30;99.90
27226;DHT22;14732;51.074;3.788;2022-12-07T15:27:12;8.30;99.90
27226;DHT22;14732;51.074;3.788;2022-12-07T15:29:38;8.30;99.90
27226;DHT22;14732;51.074;3.788;2022-12-07T15:32:03;8.20;99.90
27226;DHT22;14732;51.074;3.788;2022-12-07T15:34:29;8.20;99.90
27226;DHT22;14732;51.074;3.788;2022-12-07T15:36:57;8.10;99.90
27226;DHT22;14732;51.074;3.788;2022-12-07T15:39:22;8.10;99.90
27226;DHT22;14732;51.074;3.788;2022-12-07T15:41:48;8.00;99.90
27226;DHT22;14732;51.074;3.788;2022-12-07T15:44:14;8.00;99.90
27226;DHT22;14732;51.074;3.788;2022-12-07T15:46:59;8.00;99.90
27226;DHT22;14732;51.074;3.788;2022-12-07T15:49:25;7.90;99.90
27226;DHT22;14732;51.074;3.788;2022-12-07T15:51:51;7.90;99.90
27226;DHT22;14732;51.074;3.788;2022-12-07T15:54:22;7.90;99.90
27226;DHT22;14732;51.074;3.788;2022-12-07T15:56:48;7.90;99.90
27226;DHT22;14732;51.074;3.788;2022-12-07T15:59:15;8.00;99.90
27226;DHT22;14732;51.074;3.788;2022-12-07T16:01:41;8.10;99.90
27226;DHT22;14732;51.074;3.788;2022-12-07T16:04:06;8.20;99.90
27226;DHT22;14732;51.074;3.788;2022-12-07T16:06:32;8.20;99.90
27226;DHT22;14732;51.074;3.788;2022-12-07T16:08:58;8.30;99.90
27226;DHT22;14732;51.074;3.788;2022-12-07T16:11:23;8.20;99.90
27226;DHT22;14732;51.074;3.788;2022-12-07T16:13:49;8.20;99.90
27226;DHT22;14732;51.074;3.788;2022-12-07T16:16:16;8.20;99.90
27226;DHT22;14732;51.074;3.788;2022-12-07T16:18:44;8.10;99.90
27226;DHT22;14732;51.074;3.788;2022-12-07T16:21:10;7.70;99.90
27226;DHT22;14732;51.074;3.788;2022-12-07T16:23:36;7.40;99.90
27226;DHT22;14732;51.074;3.788;2022-12-07T16:28:35;7.60;99.90
27226;DHT22;14732;51.074;3.788;2022-12-07T16:31:20;7.60;99.90
27226;DHT22;14732;51.074;3.788;2022-12-07T16:33:47;7.60;99.90
27226;DHT22;14732;51.074;3.788;2022-12-07T16:36:15;7.60;99.90
27226;DHT22;14732;51.074;3.788;2022-12-07T16:38:42;7.70;99.90
27226;DHT22;14732;51.074;3.788;2022-12-07T16:41:08;7.70;99.90
27226;DHT22;14732;51.074;3.788;2022-12-07T16:43:35;7.90;99.90
27226;DHT22;14732;51.074;3.788;2022-12-07T16:46:02;8.10;99.90
27226;DHT22;14732;51.074;3.788;2022-12-07T16:48:28;8.20;99.90
27226;DHT22;14732;51.074;3.788;2022-12-07T16:50:53;8.20;99.90
27226;DHT22;14732;51.074;3.788;2022-12-07T16:53:21;8.20;99.90
27226;DHT22;14732;51.074;3.788;2022-12-07T16:55:47;8.20;99.90
27226;DHT22;14732;51.074;3.788;2022-12-07T16:58:14;8.30;99.90
27226;DHT22;14732;51.074;3.788;2022-12-07T17:00:41;8.40;99.90
27226;DHT22;14732;51.074;3.788;2022-12-07T17:03:08;8.20;99.90
27226;DHT22;14732;51.074;3.788;2022-12-07T17:05:41;8.00;99.90
27226;DHT22;14732;51.074;3.788;2022-12-07T17:08:07;7.90;99.90
27226;DHT22;14732;51.074;3.788;2022-12-07T17:10:35;7.80;99.90
27226;DHT22;14732;51.074;3.788;2022-12-07T17:13:02;7.70;99.90
27226;DHT22;14732;51.074;3.788;2022-12-07T17:16:01;7.70;99.90
27226;DHT22;14732;51.074;3.788;2022-12-07T17:18:28;7.70;99.90
27226;DHT22;14732;51.074;3.788;2022-12-07T17:20:54;7.80;99.90
27226;DHT22;14732;51.074;3.788;2022-12-07T17:23:21;7.70;99.90
27226;DHT22;14732;51.074;3.788;2022-12-07T17:25:47;7.70;99.90
27226;DHT22;14732;51.074;3.788;2022-12-07T17:28:12;7.90;99.90
27226;DHT22;14732;51.074;3.788;2022-12-07T17:30:38;7.90;99.90
27226;DHT22;14732;51.074;3.788;2022-12-07T17:33:04;7.80;99.90
27226;DHT22;14732;51.074;3.788;2022-12-07T17:35:30;7.70;99.90
27226;DHT22;14732;51.074;3.788;2022-12-07T17:37:55;7.60;99.90
27226;DHT22;14732;51.074;3.788;2022-12-07T17:40:21;7.50;99.90
27226;DHT22;14732;51.074;3.788;2022-12-07T17:42:47;7.40;99.90
27226;DHT22;14732;51.074;3.788;2022-12-07T17:45:16;7.20;99.90
27226;DHT22;14732;51.074;3.788;2022-12-07T17:47:42;7.10;99.90
27226;DHT22;14732;51.074;3.788;2022-12-07T17:50:09;6.90;99.90
27226;DHT22;14732;51.074;3.788;2022-12-07T17:52:38;6.90;99.90
27226;DHT22;14732;51.074;3.788;2022-12-07T17:55:22;6.90;99.90
27226;DHT22;14732;51.074;3.788;2022-12-07T17:57:48;6.90;99.90
27226;DHT22;14732;51.074;3.788;2022-12-07T18:00:14;6.70;99.90
27226;DHT22;14732;51.074;3.788;2022-12-07T18:02:40;6.70;99.90
27226;DHT22;14732;51.074;3.788;2022-12-07T18:05:06;6.80;99.90
27226;DHT22;14732;51.074;3.788;2022-12-07T18:07:32;6.70;99.90
27226;DHT22;14732;51.074;3.788;2022-12-07T18:09:58;6.70;99.90
27226;DHT22;14732;51.074;3.788;2022-12-07T18:12:23;6.80;99.90
27226;DHT22;14732;51.074;3.788;2022-12-07T18:14:49;6.80;99.90
27226;DHT22;14732;51.074;3.788;2022-12-07T18:17:16;6.80;99.90